sensor_id;sensor_type;location;lat;lon;timestamp;P1;durP1;ratioP1;P2;durP2;ratioP2
1354;SDS011;671;48.972;9.276;2023-08-07T00:01:15;0.40;;;0.40;;
1354;SDS011;671;48.972;9.276;2023-08-07T00:03:42;0.47;;;0.47;;
1354;SDS011;671;48.972;9.276;2023-08-07T00:06:09;0.40;;;0.40;;
1354;SDS011;671;48.972;9.276;2023-08-07T00:08:35;0.40;;;0.40;;
1354;SDS011;671;48.972;9.276;2023-08-07T00:11:04;0.30;;;0.30;;
1354;SDS011;671;48.972;9.276;2023-08-07T00:13:34;0.40;;;0.40;;
1354;SDS011;671;48.972;9.276;2023-08-07T00:16:01;0.40;;;0.40;;
1354;SDS011;671;48.972;9.276;2023-08-07T00:18:28;0.30;;;0.27;;
1354;SDS011;671;48.972;9.276;2023-08-07T00:20:55;0.40;;;0.40;;
1354;SDS011;671;48.972;9.276;2023-08-07T00:23:22;0.40;;;0.40;;
1354;SDS011;671;48.972;9.276;2023-08-07T00:25:48;0.30;;;0.30;;
1354;SDS011;671;48.972;9.276;2023-08-07T00:28:15;0.40;;;0.40;;
1354;SDS011;671;48.972;9.276;2023-08-07T00:30:41;0.50;;;0.50;;
1354;SDS011;671;48.972;9.276;2023-08-07T00:33:08;0.50;;;0.50;;
1354;SDS011;671;48.972;9.276;2023-08-07T00:35:34;0.40;;;0.40;;
1354;SDS011;671;48.972;9.276;2023-08-07T00:38:00;0.40;;;0.40;;
1354;SDS011;671;48.972;9.276;2023-08-07T00:40:27;0.40;;;0.40;;
1354;SDS011;671;48.972;9.276;2023-08-07T00:42:53;0.40;;;0.40;;
1354;SDS011;671;48.972;9.276;2023-08-07T00:45:20;0.50;;;0.50;;
1354;SDS011;671;48.972;9.276;2023-08-07T00:47:47;0.40;;;0.40;;
1354;SDS011;671;48.972;9.276;2023-08-07T00:50:13;0.40;;;0.40;;
1354;SDS011;671;48.972;9.276;2023-08-07T00:52:41;0.40;;;0.30;;
1354;SDS011;671;48.972;9.276;2023-08-07T00:55:07;0.43;;;0.43;;
1354;SDS011;671;48.972;9.276;2023-08-07T00:57:34;0.40;;;0.40;;
1354;SDS011;671;48.972;9.276;2023-08-07T01:00:01;0.40;;;0.40;;
1354;SDS011;671;48.972;9.276;2023-08-07T01:02:28;0.37;;;0.37;;
1354;SDS011;671;48.972;9.276;2023-08-07T01:04:55;0.50;;;0.50;;
1354;SDS011;671;48.972;9.276;2023-08-07T01:07:21;0.40;;;0.40;;
1354;SDS011;671;48.972;9.276;2023-08-07T01:09:48;0.40;;;0.40;;
1354;SDS011;671;48.972;9.276;2023-08-07T01:12:22;0.40;;;0.40;;
1354;SDS011;671;48.972;9.276;2023-08-07T01:15:02;0.40;;;0.40;;
1354;SDS011;671;48.972;9.276;2023-08-07T01:17:38;0.50;;;0.50;;
1354;SDS011;671;48.972;9.276;2023-08-07T01:20:06;0.40;;;0.40;;
1354;SDS011;671;48.972;9.276;2023-08-07T01:22:33;0.50;;;0.50;;
1354;SDS011;671;48.972;9.276;2023-08-07T01:24:59;0.40;;;0.40;;
1354;SDS011;671;48.972;9.276;2023-08-07T01:27:35;0.40;;;0.40;;
1354;SDS011;671;48.972;9.276;2023-08-07T01:35:16;0.47;;;0.47;;
1354;SDS011;671;48.972;9.276;2023-08-07T01:37:44;0.37;;;0.37;;
1354;SDS011;671;48.972;9.276;2023-08-07T01:40:12;0.47;;;0.47;;
1354;SDS011;671;48.972;9.276;2023-08-07T01:42:39;0.40;;;0.40;;
1354;SDS011;671;48.972;9.276;2023-08-07T01:45:06;0.40;;;0.40;;
1354;SDS011;671;48.972;9.276;2023-08-07T01:47:33;0.40;;;0.40;;
1354;SDS011;671;48.972;9.276;2023-08-07T01:50:00;0.40;;;0.40;;
1354;SDS011;671;48.972;9.276;2023-08-07T01:52:27;0.40;;;0.40;;
1354;SDS011;671;48.972;9.276;2023-08-07T01:54:53;0.50;;;0.50;;
1354;SDS011;671;48.972;9.276;2023-08-07T01:57:20;0.40;;;0.40;;
1354;SDS011;671;48.972;9.276;2023-08-07T01:59:46;0.40;;;0.33;;
1354;SDS011;671;48.972;9.276;2023-08-07T02:02:13;0.40;;;0.40;;
1354;SDS011;671;48.972;9.276;2023-08-07T02:04:39;0.40;;;0.40;;
1354;SDS011;671;48.972;9.276;2023-08-07T02:07:06;0.40;;;0.40;;
1354;SDS011;671;48.972;9.276;2023-08-07T02:09:32;0.40;;;0.40;;
1354;SDS011;671;48.972;9.276;2023-08-07T02:11:59;0.40;;;0.37;;
1354;SDS011;671;48.972;9.276;2023-08-07T02:14:25;0.40;;;0.30;;
1354;SDS011;671;48.972;9.276;2023-08-07T02:16:52;0.40;;;0.40;;
1354;SDS011;671;48.972;9.276;2023-08-07T02:19:18;0.40;;;0.40;;
1354;SDS011;671;48.972;9.276;2023-08-07T02:21:45;0.50;;;0.50;;
1354;SDS011;671;48.972;9.276;2023-08-07T02:24:11;0.40;;;0.40;;
1354;SDS011;671;48.972;9.276;2023-08-07T02:26:39;0.50;;;0.50;;
1354;SDS011;671;48.972;9.276;2023-08-07T02:29:06;0.40;;;0.40;;
1354;SDS011;671;48.972;9.276;2023-08-07T02:31:34;0.50;;;0.50;;
1354;SDS011;671;48.972;9.276;2023-08-07T02:34:01;0.37;;;0.37;;
1354;SDS011;671;48.972;9.276;2023-08-07T02:36:28;0.40;;;0.40;;
1354;SDS011;671;48.972;9.276;2023-08-07T02:38:54;0.50;;;0.50;;
1354;SDS011;671;48.972;9.276;2023-08-07T02:41:20;0.50;;;0.50;;
1354;SDS011;671;48.972;9.276;2023-08-07T02:43:47;0.40;;;0.40;;
1354;SDS011;671;48.972;9.276;2023-08-07T02:46:14;0.40;;;0.40;;
1354;SDS011;671;48.972;9.276;2023-08-07T02:48:40;0.40;;;0.40;;
1354;SDS011;671;48.972;9.276;2023-08-07T02:51:07;0.50;;;0.50;;
1354;SDS011;671;48.972;9.276;2023-08-07T02:53:33;0.47;;;0.47;;
1354;SDS011;671;48.972;9.276;2023-08-07T02:55:59;0.47;;;0.47;;
1354;SDS011;671;48.972;9.276;2023-08-07T02:58:26;0.40;;;0.40;;
1354;SDS011;671;48.972;9.276;2023-08-07T03:00:53;0.40;;;0.40;;
1354;SDS011;671;48.972;9.276;2023-08-07T03:03:19;0.40;;;0.40;;
1354;SDS011;671;48.972;9.276;2023-08-07T03:05:49;0.40;;;0.30;;
1354;SDS011;671;48.972;9.276;2023-08-07T03:08:16;0.40;;;0.40;;
1354;SDS011;671;48.972;9.276;2023-08-07T03:10:52;0.40;;;0.40;;
1354;SDS011;671;48.972;9.276;2023-08-07T03:13:22;0.40;;;0.40;;
1354;SDS011;671;48.972;9.276;2023-08-07T03:15:49;0.50;;;0.50;;
1354;SDS011;671;48.972;9.276;2023-08-07T03:18:16;0.50;;;0.50;;
1354;SDS011;671;48.972;9.276;2023-08-07T03:20:43;0.40;;;0.40;;
1354;SDS011;671;48.972;9.276;2023-08-07T03:23:10;0.30;;;0.30;;
1354;SDS011;671;48.972;9.276;2023-08-07T03:25:37;0.43;;;0.43;;
1354;SDS011;671;48.972;9.276;2023-08-07T03:28:03;0.40;;;0.40;;
1354;SDS011;671;48.972;9.276;2023-08-07T03:30:30;0.30;;;0.30;;
1354;SDS011;671;48.972;9.276;2023-08-07T03:32:56;0.47;;;0.47;;
1354;SDS011;671;48.972;9.276;2023-08-07T03:35:22;0.50;;;0.50;;
1354;SDS011;671;48.972;9.276;2023-08-07T03:37:49;0.40;;;0.40;;
1354;SDS011;671;48.972;9.276;2023-08-07T03:40:16;0.30;;;0.30;;
1354;SDS011;671;48.972;9.276;2023-08-07T03:42:43;0.40;;;0.40;;
1354;SDS011;671;48.972;9.276;2023-08-07T03:45:09;0.50;;;0.50;;
1354;SDS011;671;48.972;9.276;2023-08-07T03:47:36;0.40;;;0.40;;
1354;SDS011;671;48.972;9.276;2023-08-07T03:50:02;0.40;;;0.30;;
1354;SDS011;671;48.972;9.276;2023-08-07T03:52:29;0.40;;;0.30;;
1354;SDS011;671;48.972;9.276;2023-08-07T03:54:56;0.40;;;0.40;;
1354;SDS011;671;48.972;9.276;2023-08-07T03:57:22;0.40;;;0.40;;
1354;SDS011;671;48.972;9.276;2023-08-07T03:59:49;0.40;;;0.30;;
1354;SDS011;671;48.972;9.276;2023-08-07T04:02:15;0.43;;;0.43;;
1354;SDS011;671;48.972;9.276;2023-08-07T04:04:42;0.40;;;0.40;;
1354;SDS011;671;48.972;9.276;2023-08-07T04:07:08;0.50;;;0.50;;
1354;SDS011;671;48.972;9.276;2023-08-07T04:09:35;0.40;;;0.40;;
1354;SDS011;671;48.972;9.276;2023-08-07T04:12:01;0.40;;;0.30;;
1354;SDS011;671;48.972;9.276;2023-08-07T04:14:28;0.40;;;0.37;;
1354;SDS011;671;48.972;9.276;2023-08-07T04:16:54;0.30;;;0.30;;
1354;SDS011;671;48.972;9.276;2023-08-07T04:19:21;0.40;;;0.40;;
1354;SDS011;671;48.972;9.276;2023-08-07T04:21:47;0.40;;;0.37;;
1354;SDS011;671;48.972;9.276;2023-08-07T04:24:14;0.50;;;0.50;;
1354;SDS011;671;48.972;9.276;2023-08-07T04:26:40;0.50;;;0.50;;
1354;SDS011;671;48.972;9.276;2023-08-07T04:29:07;0.40;;;0.40;;
1354;SDS011;671;48.972;9.276;2023-08-07T04:31:33;0.40;;;0.40;;
1354;SDS011;671;48.972;9.276;2023-08-07T04:34:00;0.40;;;0.40;;
1354;SDS011;671;48.972;9.276;2023-08-07T04:36:26;0.50;;;0.50;;
1354;SDS011;671;48.972;9.276;2023-08-07T04:38:52;0.50;;;0.50;;
1354;SDS011;671;48.972;9.276;2023-08-07T04:41:20;0.50;;;0.50;;
1354;SDS011;671;48.972;9.276;2023-08-07T04:43:46;0.40;;;0.40;;
1354;SDS011;671;48.972;9.276;2023-08-07T04:46:13;0.50;;;0.50;;
1354;SDS011;671;48.972;9.276;2023-08-07T04:48:40;0.37;;;0.30;;
1354;SDS011;671;48.972;9.276;2023-08-07T04:51:07;0.30;;;0.30;;
1354;SDS011;671;48.972;9.276;2023-08-07T04:53:33;0.50;;;0.50;;
1354;SDS011;671;48.972;9.276;2023-08-07T04:56:00;0.50;;;0.50;;
1354;SDS011;671;48.972;9.276;2023-08-07T04:58:26;0.50;;;0.50;;
1354;SDS011;671;48.972;9.276;2023-08-07T05:00:56;0.40;;;0.40;;
1354;SDS011;671;48.972;9.276;2023-08-07T05:03:23;0.40;;;0.40;;
1354;SDS011;671;48.972;9.276;2023-08-07T05:05:50;0.40;;;0.40;;
1354;SDS011;671;48.972;9.276;2023-08-07T05:08:23;0.50;;;0.50;;
1354;SDS011;671;48.972;9.276;2023-08-07T05:10:50;0.50;;;0.50;;
1354;SDS011;671;48.972;9.276;2023-08-07T05:13:16;0.40;;;0.40;;
1354;SDS011;671;48.972;9.276;2023-08-07T05:15:43;0.47;;;0.47;;
1354;SDS011;671;48.972;9.276;2023-08-07T05:18:09;0.40;;;0.30;;
1354;SDS011;671;48.972;9.276;2023-08-07T05:20:36;0.50;;;0.50;;
1354;SDS011;671;48.972;9.276;2023-08-07T05:23:02;0.40;;;0.40;;
1354;SDS011;671;48.972;9.276;2023-08-07T05:25:29;0.50;;;0.50;;
1354;SDS011;671;48.972;9.276;2023-08-07T05:27:55;0.60;;;0.60;;
1354;SDS011;671;48.972;9.276;2023-08-07T05:30:22;0.50;;;0.50;;
1354;SDS011;671;48.972;9.276;2023-08-07T05:32:48;0.40;;;0.40;;
1354;SDS011;671;48.972;9.276;2023-08-07T05:35:14;0.40;;;0.40;;
1354;SDS011;671;48.972;9.276;2023-08-07T05:37:41;0.40;;;0.40;;
1354;SDS011;671;48.972;9.276;2023-08-07T05:40:08;0.40;;;0.40;;
1354;SDS011;671;48.972;9.276;2023-08-07T05:42:37;0.40;;;0.37;;
1354;SDS011;671;48.972;9.276;2023-08-07T05:45:04;0.40;;;0.40;;
1354;SDS011;671;48.972;9.276;2023-08-07T05:47:32;0.30;;;0.30;;
1354;SDS011;671;48.972;9.276;2023-08-07T05:49:58;0.40;;;0.40;;
1354;SDS011;671;48.972;9.276;2023-08-07T05:52:24;0.50;;;0.50;;
1354;SDS011;671;48.972;9.276;2023-08-07T05:54:51;0.50;;;0.50;;
1354;SDS011;671;48.972;9.276;2023-08-07T05:57:18;0.50;;;0.50;;
1354;SDS011;671;48.972;9.276;2023-08-07T05:59:44;0.30;;;0.30;;
1354;SDS011;671;48.972;9.276;2023-08-07T06:02:11;0.30;;;0.30;;
1354;SDS011;671;48.972;9.276;2023-08-07T06:04:37;0.40;;;0.40;;
1354;SDS011;671;48.972;9.276;2023-08-07T06:07:05;0.40;;;0.40;;
1354;SDS011;671;48.972;9.276;2023-08-07T06:09:31;0.40;;;0.40;;
1354;SDS011;671;48.972;9.276;2023-08-07T06:11:59;0.40;;;0.40;;
1354;SDS011;671;48.972;9.276;2023-08-07T06:14:25;0.40;;;0.40;;
1354;SDS011;671;48.972;9.276;2023-08-07T06:16:52;0.40;;;0.40;;
1354;SDS011;671;48.972;9.276;2023-08-07T06:19:18;0.40;;;0.40;;
1354;SDS011;671;48.972;9.276;2023-08-07T06:21:48;0.47;;;0.47;;
1354;SDS011;671;48.972;9.276;2023-08-07T06:24:14;0.40;;;0.40;;
1354;SDS011;671;48.972;9.276;2023-08-07T06:26:41;0.30;;;0.30;;
1354;SDS011;671;48.972;9.276;2023-08-07T06:29:07;0.30;;;0.30;;
1354;SDS011;671;48.972;9.276;2023-08-07T06:31:34;0.30;;;0.30;;
1354;SDS011;671;48.972;9.276;2023-08-07T06:34:00;0.40;;;0.40;;
1354;SDS011;671;48.972;9.276;2023-08-07T06:36:27;0.40;;;0.40;;
1354;SDS011;671;48.972;9.276;2023-08-07T06:38:54;0.30;;;0.20;;
1354;SDS011;671;48.972;9.276;2023-08-07T06:41:21;0.30;;;0.30;;
1354;SDS011;671;48.972;9.276;2023-08-07T06:43:47;0.30;;;0.30;;
1354;SDS011;671;48.972;9.276;2023-08-07T06:46:15;0.40;;;0.40;;
1354;SDS011;671;48.972;9.276;2023-08-07T06:48:42;0.40;;;0.40;;
1354;SDS011;671;48.972;9.276;2023-08-07T06:51:08;0.30;;;0.30;;
1354;SDS011;671;48.972;9.276;2023-08-07T06:53:35;0.37;;;0.37;;
1354;SDS011;671;48.972;9.276;2023-08-07T06:56:01;0.30;;;0.30;;
1354;SDS011;671;48.972;9.276;2023-08-07T06:58:28;0.30;;;0.27;;
1354;SDS011;671;48.972;9.276;2023-08-07T07:00:54;0.30;;;0.30;;
1354;SDS011;671;48.972;9.276;2023-08-07T07:03:21;0.30;;;0.30;;
1354;SDS011;671;48.972;9.276;2023-08-07T07:05:48;0.30;;;0.20;;
1354;SDS011;671;48.972;9.276;2023-08-07T07:08:15;0.30;;;0.30;;
1354;SDS011;671;48.972;9.276;2023-08-07T07:10:42;0.30;;;0.30;;
1354;SDS011;671;48.972;9.276;2023-08-07T07:13:09;0.30;;;0.30;;
1354;SDS011;671;48.972;9.276;2023-08-07T07:15:35;0.30;;;0.30;;
1354;SDS011;671;48.972;9.276;2023-08-07T07:18:02;0.30;;;0.30;;
1354;SDS011;671;48.972;9.276;2023-08-07T07:20:28;0.30;;;0.30;;
1354;SDS011;671;48.972;9.276;2023-08-07T07:22:55;0.30;;;0.30;;
1354;SDS011;671;48.972;9.276;2023-08-07T07:25:22;0.30;;;0.30;;
1354;SDS011;671;48.972;9.276;2023-08-07T07:27:48;0.40;;;0.40;;
1354;SDS011;671;48.972;9.276;2023-08-07T07:30:15;0.30;;;0.30;;
1354;SDS011;671;48.972;9.276;2023-08-07T07:32:41;0.40;;;0.40;;
1354;SDS011;671;48.972;9.276;2023-08-07T07:35:08;0.40;;;0.40;;
1354;SDS011;671;48.972;9.276;2023-08-07T07:37:34;0.30;;;0.30;;
1354;SDS011;671;48.972;9.276;2023-08-07T07:40:01;0.30;;;0.30;;
1354;SDS011;671;48.972;9.276;2023-08-07T07:42:28;0.30;;;0.30;;
1354;SDS011;671;48.972;9.276;2023-08-07T07:44:55;0.40;;;0.40;;
1354;SDS011;671;48.972;9.276;2023-08-07T07:47:21;0.40;;;0.40;;
1354;SDS011;671;48.972;9.276;2023-08-07T07:49:48;0.30;;;0.27;;
1354;SDS011;671;48.972;9.276;2023-08-07T07:52:14;0.40;;;0.33;;
1354;SDS011;671;48.972;9.276;2023-08-07T07:54:41;0.30;;;0.30;;
1354;SDS011;671;48.972;9.276;2023-08-07T07:57:08;0.30;;;0.30;;
1354;SDS011;671;48.972;9.276;2023-08-07T07:59:34;0.30;;;0.30;;
1354;SDS011;671;48.972;9.276;2023-08-07T08:02:01;0.30;;;0.30;;
1354;SDS011;671;48.972;9.276;2023-08-07T08:04:27;0.30;;;0.23;;
1354;SDS011;671;48.972;9.276;2023-08-07T08:06:54;0.30;;;0.30;;
1354;SDS011;671;48.972;9.276;2023-08-07T08:09:20;0.30;;;0.30;;
1354;SDS011;671;48.972;9.276;2023-08-07T08:11:47;0.30;;;0.30;;
1354;SDS011;671;48.972;9.276;2023-08-07T08:14:14;0.30;;;0.30;;
1354;SDS011;671;48.972;9.276;2023-08-07T08:16:40;0.30;;;0.30;;
1354;SDS011;671;48.972;9.276;2023-08-07T08:19:06;0.30;;;0.30;;
1354;SDS011;671;48.972;9.276;2023-08-07T08:21:35;0.40;;;0.40;;
1354;SDS011;671;48.972;9.276;2023-08-07T08:24:02;0.30;;;0.30;;
1354;SDS011;671;48.972;9.276;2023-08-07T08:26:28;0.30;;;0.30;;
1354;SDS011;671;48.972;9.276;2023-08-07T08:28:55;0.30;;;0.30;;
1354;SDS011;671;48.972;9.276;2023-08-07T08:31:21;0.30;;;0.30;;
1354;SDS011;671;48.972;9.276;2023-08-07T08:33:49;0.40;;;0.40;;
1354;SDS011;671;48.972;9.276;2023-08-07T08:36:16;0.30;;;0.30;;
1354;SDS011;671;48.972;9.276;2023-08-07T08:38:43;0.30;;;0.30;;
1354;SDS011;671;48.972;9.276;2023-08-07T08:41:12;0.30;;;0.30;;
1354;SDS011;671;48.972;9.276;2023-08-07T08:43:39;0.30;;;0.30;;
1354;SDS011;671;48.972;9.276;2023-08-07T08:46:07;0.30;;;0.30;;
1354;SDS011;671;48.972;9.276;2023-08-07T08:48:35;0.30;;;0.30;;
1354;SDS011;671;48.972;9.276;2023-08-07T08:51:04;0.30;;;0.20;;
1354;SDS011;671;48.972;9.276;2023-08-07T08:53:32;0.30;;;0.20;;
1354;SDS011;671;48.972;9.276;2023-08-07T08:55:59;0.30;;;0.20;;
1354;SDS011;671;48.972;9.276;2023-08-07T08:58:27;0.30;;;0.23;;
1354;SDS011;671;48.972;9.276;2023-08-07T09:00:54;0.40;;;0.40;;
1354;SDS011;671;48.972;9.276;2023-08-07T09:03:21;0.30;;;0.30;;
1354;SDS011;671;48.972;9.276;2023-08-07T09:05:47;0.30;;;0.20;;
1354;SDS011;671;48.972;9.276;2023-08-07T09:08:15;0.30;;;0.20;;
1354;SDS011;671;48.972;9.276;2023-08-07T09:10:42;0.30;;;0.20;;
1354;SDS011;671;48.972;9.276;2023-08-07T09:13:11;0.30;;;0.20;;
1354;SDS011;671;48.972;9.276;2023-08-07T09:15:40;0.30;;;0.30;;
1354;SDS011;671;48.972;9.276;2023-08-07T09:18:13;0.30;;;0.30;;
1354;SDS011;671;48.972;9.276;2023-08-07T09:20:40;0.30;;;0.20;;
1354;SDS011;671;48.972;9.276;2023-08-07T09:23:07;0.30;;;0.20;;
1354;SDS011;671;48.972;9.276;2023-08-07T09:25:34;0.30;;;0.20;;
1354;SDS011;671;48.972;9.276;2023-08-07T09:28:01;0.30;;;0.20;;
1354;SDS011;671;48.972;9.276;2023-08-07T09:30:35;0.30;;;0.30;;
1354;SDS011;671;48.972;9.276;2023-08-07T09:33:08;0.30;;;0.20;;
1354;SDS011;671;48.972;9.276;2023-08-07T09:35:34;0.30;;;0.30;;
1354;SDS011;671;48.972;9.276;2023-08-07T09:38:01;0.30;;;0.30;;
1354;SDS011;671;48.972;9.276;2023-08-07T09:40:28;0.30;;;0.20;;
1354;SDS011;671;48.972;9.276;2023-08-07T09:42:56;0.30;;;0.20;;
1354;SDS011;671;48.972;9.276;2023-08-07T09:45:23;0.30;;;0.30;;
1354;SDS011;671;48.972;9.276;2023-08-07T09:48:00;0.30;;;0.20;;
1354;SDS011;671;48.972;9.276;2023-08-07T09:50:27;0.30;;;0.20;;
1354;SDS011;671;48.972;9.276;2023-08-07T09:52:55;0.30;;;0.20;;
1354;SDS011;671;48.972;9.276;2023-08-07T09:55:24;0.30;;;0.20;;
1354;SDS011;671;48.972;9.276;2023-08-07T09:57:50;0.30;;;0.30;;
1354;SDS011;671;48.972;9.276;2023-08-07T10:00:17;0.30;;;0.20;;
1354;SDS011;671;48.972;9.276;2023-08-07T10:02:46;0.30;;;0.20;;
1354;SDS011;671;48.972;9.276;2023-08-07T10:05:13;0.30;;;0.20;;
1354;SDS011;671;48.972;9.276;2023-08-07T10:07:41;0.30;;;0.20;;
1354;SDS011;671;48.972;9.276;2023-08-07T10:10:08;0.30;;;0.20;;
1354;SDS011;671;48.972;9.276;2023-08-07T10:12:36;0.30;;;0.20;;
1354;SDS011;671;48.972;9.276;2023-08-07T10:15:04;0.30;;;0.20;;
1354;SDS011;671;48.972;9.276;2023-08-07T10:17:31;0.30;;;0.30;;
1354;SDS011;671;48.972;9.276;2023-08-07T10:19:58;0.30;;;0.20;;
1354;SDS011;671;48.972;9.276;2023-08-07T10:22:26;0.30;;;0.20;;
1354;SDS011;671;48.972;9.276;2023-08-07T10:24:57;0.30;;;0.20;;
1354;SDS011;671;48.972;9.276;2023-08-07T10:27:27;0.30;;;0.20;;
1354;SDS011;671;48.972;9.276;2023-08-07T10:29:57;0.30;;;0.20;;
1354;SDS011;671;48.972;9.276;2023-08-07T10:32:27;0.30;;;0.20;;
1354;SDS011;671;48.972;9.276;2023-08-07T10:34:54;0.30;;;0.20;;
1354;SDS011;671;48.972;9.276;2023-08-07T10:40:18;0.30;;;0.20;;
1354;SDS011;671;48.972;9.276;2023-08-07T10:45:26;0.30;;;0.20;;
1354;SDS011;671;48.972;9.276;2023-08-07T10:50:52;0.30;;;0.20;;
1354;SDS011;671;48.972;9.276;2023-08-07T10:56:02;0.30;;;0.20;;
1354;SDS011;671;48.972;9.276;2023-08-07T10:58:31;0.30;;;0.20;;
1354;SDS011;671;48.972;9.276;2023-08-07T11:03:48;0.30;;;0.20;;
1354;SDS011;671;48.972;9.276;2023-08-07T11:06:29;0.40;;;0.20;;
1354;SDS011;671;48.972;9.276;2023-08-07T11:09:00;0.30;;;0.20;;
1354;SDS011;671;48.972;9.276;2023-08-07T11:11:48;0.30;;;0.30;;
1354;SDS011;671;48.972;9.276;2023-08-07T11:14:15;0.30;;;0.27;;
1354;SDS011;671;48.972;9.276;2023-08-07T11:16:44;0.30;;;0.27;;
1354;SDS011;671;48.972;9.276;2023-08-07T11:19:12;0.30;;;0.20;;
1354;SDS011;671;48.972;9.276;2023-08-07T11:21:40;0.30;;;0.20;;
1354;SDS011;671;48.972;9.276;2023-08-07T11:24:08;0.30;;;0.30;;
1354;SDS011;671;48.972;9.276;2023-08-07T11:26:36;0.30;;;0.30;;
1354;SDS011;671;48.972;9.276;2023-08-07T11:29:02;0.30;;;0.23;;
1354;SDS011;671;48.972;9.276;2023-08-07T11:31:29;0.30;;;0.20;;
1354;SDS011;671;48.972;9.276;2023-08-07T11:33:56;0.30;;;0.20;;
1354;SDS011;671;48.972;9.276;2023-08-07T11:36:23;0.30;;;0.30;;
1354;SDS011;671;48.972;9.276;2023-08-07T11:38:50;0.30;;;0.20;;
1354;SDS011;671;48.972;9.276;2023-08-07T11:41:18;0.30;;;0.20;;
1354;SDS011;671;48.972;9.276;2023-08-07T11:43:45;0.30;;;0.20;;
1354;SDS011;671;48.972;9.276;2023-08-07T11:46:12;0.30;;;0.20;;
1354;SDS011;671;48.972;9.276;2023-08-07T11:48:42;0.30;;;0.20;;
1354;SDS011;671;48.972;9.276;2023-08-07T11:51:09;0.30;;;0.20;;
1354;SDS011;671;48.972;9.276;2023-08-07T11:53:37;0.30;;;0.23;;
1354;SDS011;671;48.972;9.276;2023-08-07T11:56:08;0.30;;;0.20;;
1354;SDS011;671;48.972;9.276;2023-08-07T11:58:37;0.30;;;0.20;;
1354;SDS011;671;48.972;9.276;2023-08-07T12:03:39;0.30;;;0.20;;
1354;SDS011;671;48.972;9.276;2023-08-07T12:06:08;0.30;;;0.23;;
1354;SDS011;671;48.972;9.276;2023-08-07T12:08:39;0.30;;;0.20;;
1354;SDS011;671;48.972;9.276;2023-08-07T12:11:08;0.30;;;0.20;;
1354;SDS011;671;48.972;9.276;2023-08-07T12:13:37;0.30;;;0.20;;
1354;SDS011;671;48.972;9.276;2023-08-07T12:16:07;0.30;;;0.20;;
1354;SDS011;671;48.972;9.276;2023-08-07T12:18:35;0.30;;;0.30;;
1354;SDS011;671;48.972;9.276;2023-08-07T12:21:04;0.30;;;0.20;;
1354;SDS011;671;48.972;9.276;2023-08-07T12:23:33;0.30;;;0.20;;
1354;SDS011;671;48.972;9.276;2023-08-07T12:26:00;0.30;;;0.20;;
1354;SDS011;671;48.972;9.276;2023-08-07T12:28:27;0.30;;;0.20;;
1354;SDS011;671;48.972;9.276;2023-08-07T12:30:54;0.30;;;0.20;;
1354;SDS011;671;48.972;9.276;2023-08-07T12:33:22;0.30;;;0.20;;
1354;SDS011;671;48.972;9.276;2023-08-07T12:35:48;0.30;;;0.20;;
1354;SDS011;671;48.972;9.276;2023-08-07T12:38:15;0.30;;;0.20;;
1354;SDS011;671;48.972;9.276;2023-08-07T12:40:43;0.30;;;0.20;;
1354;SDS011;671;48.972;9.276;2023-08-07T12:43:09;0.30;;;0.20;;
1354;SDS011;671;48.972;9.276;2023-08-07T12:45:36;0.30;;;0.30;;
1354;SDS011;671;48.972;9.276;2023-08-07T12:48:03;0.30;;;0.30;;
1354;SDS011;671;48.972;9.276;2023-08-07T12:50:31;0.30;;;0.20;;
1354;SDS011;671;48.972;9.276;2023-08-07T12:52:57;0.30;;;0.20;;
1354;SDS011;671;48.972;9.276;2023-08-07T12:55:24;0.30;;;0.20;;
1354;SDS011;671;48.972;9.276;2023-08-07T12:57:52;0.30;;;0.20;;
1354;SDS011;671;48.972;9.276;2023-08-07T13:00:19;0.30;;;0.20;;
1354;SDS011;671;48.972;9.276;2023-08-07T13:02:46;0.30;;;0.30;;
1354;SDS011;671;48.972;9.276;2023-08-07T13:05:15;0.30;;;0.20;;
1354;SDS011;671;48.972;9.276;2023-08-07T13:07:42;0.30;;;0.30;;
1354;SDS011;671;48.972;9.276;2023-08-07T13:10:10;0.30;;;0.20;;
1354;SDS011;671;48.972;9.276;2023-08-07T13:12:38;0.30;;;0.20;;
1354;SDS011;671;48.972;9.276;2023-08-07T13:15:07;0.30;;;0.23;;
1354;SDS011;671;48.972;9.276;2023-08-07T13:17:39;0.30;;;0.20;;
1354;SDS011;671;48.972;9.276;2023-08-07T13:20:06;0.30;;;0.20;;
1354;SDS011;671;48.972;9.276;2023-08-07T13:22:34;0.30;;;0.20;;
1354;SDS011;671;48.972;9.276;2023-08-07T13:25:01;0.30;;;0.27;;
1354;SDS011;671;48.972;9.276;2023-08-07T13:27:29;0.30;;;0.30;;
1354;SDS011;671;48.972;9.276;2023-08-07T13:29:56;0.30;;;0.20;;
1354;SDS011;671;48.972;9.276;2023-08-07T13:32:24;0.30;;;0.20;;
1354;SDS011;671;48.972;9.276;2023-08-07T13:34:51;0.30;;;0.20;;
1354;SDS011;671;48.972;9.276;2023-08-07T13:37:18;0.30;;;0.20;;
1354;SDS011;671;48.972;9.276;2023-08-07T13:39:45;0.30;;;0.20;;
1354;SDS011;671;48.972;9.276;2023-08-07T13:42:14;0.30;;;0.20;;
1354;SDS011;671;48.972;9.276;2023-08-07T13:44:40;0.30;;;0.20;;
1354;SDS011;671;48.972;9.276;2023-08-07T13:47:07;0.30;;;0.20;;
1354;SDS011;671;48.972;9.276;2023-08-07T13:49:34;0.30;;;0.20;;
1354;SDS011;671;48.972;9.276;2023-08-07T13:52:00;0.30;;;0.20;;
1354;SDS011;671;48.972;9.276;2023-08-07T13:54:27;0.30;;;0.20;;
1354;SDS011;671;48.972;9.276;2023-08-07T13:56:54;0.30;;;0.20;;
1354;SDS011;671;48.972;9.276;2023-08-07T13:59:20;0.30;;;0.20;;
1354;SDS011;671;48.972;9.276;2023-08-07T14:01:47;0.30;;;0.20;;
1354;SDS011;671;48.972;9.276;2023-08-07T14:04:13;0.30;;;0.20;;
1354;SDS011;671;48.972;9.276;2023-08-07T14:06:40;0.30;;;0.20;;
1354;SDS011;671;48.972;9.276;2023-08-07T14:09:10;0.30;;;0.20;;
1354;SDS011;671;48.972;9.276;2023-08-07T14:11:37;0.30;;;0.20;;
1354;SDS011;671;48.972;9.276;2023-08-07T14:14:04;0.30;;;0.20;;
1354;SDS011;671;48.972;9.276;2023-08-07T14:16:30;0.30;;;0.20;;
1354;SDS011;671;48.972;9.276;2023-08-07T14:18:57;0.30;;;0.20;;
1354;SDS011;671;48.972;9.276;2023-08-07T14:21:23;0.30;;;0.20;;
1354;SDS011;671;48.972;9.276;2023-08-07T14:23:50;0.30;;;0.20;;
1354;SDS011;671;48.972;9.276;2023-08-07T14:26:17;0.30;;;0.20;;
1354;SDS011;671;48.972;9.276;2023-08-07T14:28:44;0.30;;;0.20;;
1354;SDS011;671;48.972;9.276;2023-08-07T14:31:11;0.30;;;0.20;;
1354;SDS011;671;48.972;9.276;2023-08-07T14:33:37;0.30;;;0.20;;
1354;SDS011;671;48.972;9.276;2023-08-07T14:36:04;0.30;;;0.20;;
1354;SDS011;671;48.972;9.276;2023-08-07T14:38:31;0.30;;;0.20;;
1354;SDS011;671;48.972;9.276;2023-08-07T14:40:58;0.30;;;0.20;;
1354;SDS011;671;48.972;9.276;2023-08-07T14:43:28;0.30;;;0.20;;
1354;SDS011;671;48.972;9.276;2023-08-07T14:45:57;0.30;;;0.20;;
1354;SDS011;671;48.972;9.276;2023-08-07T14:48:26;0.30;;;0.20;;
1354;SDS011;671;48.972;9.276;2023-08-07T14:50:53;0.30;;;0.20;;
1354;SDS011;671;48.972;9.276;2023-08-07T14:53:21;0.30;;;0.20;;
1354;SDS011;671;48.972;9.276;2023-08-07T14:55:47;0.30;;;0.20;;
1354;SDS011;671;48.972;9.276;2023-08-07T14:58:13;0.30;;;0.20;;
1354;SDS011;671;48.972;9.276;2023-08-07T15:00:40;0.30;;;0.20;;
1354;SDS011;671;48.972;9.276;2023-08-07T15:03:07;0.30;;;0.20;;
1354;SDS011;671;48.972;9.276;2023-08-07T15:05:33;0.30;;;0.20;;
1354;SDS011;671;48.972;9.276;2023-08-07T15:08:00;0.30;;;0.20;;
1354;SDS011;671;48.972;9.276;2023-08-07T15:10:27;0.30;;;0.20;;
1354;SDS011;671;48.972;9.276;2023-08-07T15:12:54;0.30;;;0.20;;
1354;SDS011;671;48.972;9.276;2023-08-07T15:15:21;0.30;;;0.20;;
1354;SDS011;671;48.972;9.276;2023-08-07T15:17:48;0.30;;;0.20;;
1354;SDS011;671;48.972;9.276;2023-08-07T15:20:15;0.30;;;0.20;;
1354;SDS011;671;48.972;9.276;2023-08-07T15:22:41;0.30;;;0.20;;
1354;SDS011;671;48.972;9.276;2023-08-07T15:25:08;0.30;;;0.20;;
1354;SDS011;671;48.972;9.276;2023-08-07T15:27:34;0.30;;;0.20;;
1354;SDS011;671;48.972;9.276;2023-08-07T15:30:01;0.30;;;0.20;;
1354;SDS011;671;48.972;9.276;2023-08-07T15:32:27;0.30;;;0.20;;
1354;SDS011;671;48.972;9.276;2023-08-07T15:34:54;0.30;;;0.20;;
1354;SDS011;671;48.972;9.276;2023-08-07T15:37:20;0.30;;;0.20;;
1354;SDS011;671;48.972;9.276;2023-08-07T15:39:47;0.30;;;0.20;;
1354;SDS011;671;48.972;9.276;2023-08-07T15:42:13;0.30;;;0.20;;
1354;SDS011;671;48.972;9.276;2023-08-07T15:44:40;0.30;;;0.20;;
1354;SDS011;671;48.972;9.276;2023-08-07T15:47:06;0.30;;;0.20;;
1354;SDS011;671;48.972;9.276;2023-08-07T15:49:33;0.30;;;0.20;;
1354;SDS011;671;48.972;9.276;2023-08-07T15:51:59;0.30;;;0.20;;